ADDS METAR Data INFO
IDs: Format: Raw Decoded Include TAF

Data at: 0634 UTC 15 Dec 2017

KPSK 150615Z AUTO 00000KT 10SM OVC055 M04/M06 A2998 RMK AO2 T10441060
KPSK 150555Z AUTO 30003KT 10SM SCT055 SCT120 M04/M06 A2999 RMK AO2 T10401062 10001 21043 400571043
KPSK 150535Z AUTO 00000KT 10SM CLR M03/M05 A2998 RMK AO2 T10321054
KPSK 150515Z AUTO 00000KT 10SM CLR M04/M06 A2999 RMK AO2 T10401059
KPSK 150455Z AUTO 00000KT 10SM CLR M04/M07 A2999 RMK AO2 T10431066
KPSK 150435Z AUTO 00000KT 10SM CLR M02/M05 A2999 RMK AO2 T10251055
KPSK 150415Z AUTO 15003KT 10SM CLR M03/M06 A2998 RMK AO2 T10261057
KPSK 150355Z AUTO 00000KT 10SM CLR M02/M05 A3000 RMK AO2 T10201053
KPSK 150335Z AUTO 00000KT 10SM CLR M02/M05 A2999 RMK AO2 T10251055
KPSK 150315Z AUTO 00000KT 10SM CLR M02/M06 A2999 RMK AO2 T10251056
KPSK 150255Z AUTO 00000KT 10SM CLR M02/M05 A2999 RMK AO2 T10251055
KPSK 150235Z AUTO 00000KT 10SM CLR M02/M06 A2999 RMK AO2 T10221056
KPSK 150215Z AUTO 00000KT 10SM CLR M02/M06 A2997 RMK AO2 T10251057
KPSK 150155Z AUTO 33003KT 10SM CLR M01/M05 A2997 RMK AO2 T10131055
KPSK 150135Z AUTO 00000KT 10SM CLR 00/M05 A2997 RMK AO2 T10051052
KPSK 150110Z AUTO 00000KT 10SM SCT037 M01/M05 A2998 RMK AO2 T10071055
KPSK 150055Z AUTO 00000KT 10SM BKN037 M01/M05 A2998 RMK AO2 T10071055
KPSK 150035Z AUTO 00000KT 10SM CLR 00/M06 A2998 RMK AO2 T10031056
KPSK 150015Z AUTO 00000KT 10SM CLR 00/M05 A2998 RMK AO2 T10021055
KPSK 142355Z AUTO 00000KT 10SM SCT039 00/M05 A2996 RMK AO2 T00031055 10053 20003
KPSK 142335Z AUTO 35003KT 10SM BKN039 00/M05 A2996 RMK AO2 T00041052
KPSK 142315Z AUTO 36004KT 10SM SCT039 01/M05 A2995 RMK AO2 T00051052
KPSK 142255Z AUTO 36003KT 10SM SCT037 01/M05 A2994 RMK AO2 T00121049
KPSK 142235Z AUTO 34005KT 10SM SCT037 02/M05 A2994 RMK AO2 T00171047
KPSK 142215Z AUTO 00000KT 10SM CLR 02/M05 A2993 RMK AO2 T00231046
KPSK 142155Z AUTO 30007KT 10SM CLR 03/M04 A2993 RMK AO2 T00261045
KPSK 142135Z AUTO 32007KT 10SM CLR 03/M04 A2992 RMK AO2 T00301045
KPSK 142115Z AUTO 31006KT 10SM CLR 03/M04 A2991 RMK AO2 T00321044
KPSK 142055Z AUTO 32008KT 10SM SCT037 04/M04 A2990 RMK AO2 T00351043
KPSK 142035Z AUTO 31009KT 10SM SCT037 04/M04 A2990 RMK AO2 T00361044
KPSK 142015Z AUTO 31007KT 10SM CLR 04/M04 A2989 RMK AO2 T00401045
KPSK 141955Z AUTO 29009KT 10SM SCT038 05/M04 A2988 RMK AO2 T00451044
KPSK 141935Z AUTO 32006KT 10SM BKN038 05/M04 A2988 RMK AO2 T00451043
KPSK 141915Z AUTO 30005KT 10SM SCT038 05/M04 A2987 RMK AO2 T00461043
KPSK 141855Z AUTO 31010KT 10SM CLR 05/M04 A2986 RMK AO2 T00521042
KPSK 141835Z AUTO 31008G14KT 10SM SCT036 05/M04 A2986 RMK AO2 T00511043
KPSK 141815Z AUTO 28006KT 10SM SCT038 05/M04 A2986 RMK AO2 T00481044
KPSK 141755Z AUTO 28009KT 7SM BKN036 04/M04 A2986 RMK AO2 T00441042 10057 20035
KPSK 141735Z AUTO 28014G17KT 10SM BKN036 06/M04 A2986 RMK AO2 T00571041
KPSK 141715Z AUTO 28008KT 10SM BKN036 04/M05 A2986 RMK AO2 T00361047
KPSK 141655Z AUTO 30009KT 10SM OVC036 04/M04 A2985 RMK AO2 T00411045
KPSK 141635Z AUTO 33008KT 10SM BKN036 04/M05 A2986 RMK AO2 T00351046
KPSK 141615Z AUTO 30010KT 10SM SCT036 04/M05 A2985 RMK AO2 T00361046
KPSK 141555Z AUTO 28018G22KT 10SM OVC034 05/M04 A2984 RMK AO2 T00471041
KPSK 141535Z AUTO 29014KT 10SM OVC032 04/M03 A2984 RMK AO2 T00411034
KPSK 141515Z AUTO 27011G19KT 250V340 10SM OVC034 04/M03 A2983 RMK AO2 T00391035
KPSK 141455Z AUTO 28016G24KT 10SM OVC034 04/M04 A2981 RMK AO2 T00401036
KPSK 141435Z AUTO 30015G25KT 10SM OVC036 04/M04 A2981 RMK AO2 T00441037
KPSK 141415Z AUTO 30011G18KT 10SM OVC036 05/M04 A2979 RMK AO2 T00451037
KPSK 141355Z AUTO 32008KT 300V360 10SM OVC036 04/M03 A2977 RMK AO2 T00421033
KPSK 141335Z AUTO 31013G24KT 10SM OVC038 05/M03 A2975 RMK AO2 T00461033
KPSK 141315Z AUTO 29011G17KT 10SM OVC038 05/M03 A2974 RMK AO2 T00461032
KPSK 141255Z AUTO 29007G24KT 10SM OVC040 05/M03 A2972 RMK AO2 T00471035
KPSK 141235Z AUTO 28016G25KT 10SM OVC040 05/M04 A2970 RMK AO2 T00461036
KPSK 141215Z AUTO 29007G16KT 250V310 10SM BKN042 OVC050 05/M04 A2970 RMK AO2 T00451040
KPSK 141155Z AUTO 28014G23KT 10SM SCT043 SCT049 05/M04 A2969 RMK AO2 T00451044 10056 20042
KPSK 141135Z AUTO 27017G25KT 10SM SCT045 05/M04 A2967 RMK AO2 T00451045
KPSK 141115Z AUTO 28016G25KT 10SM CLR 05/M05 A2965 RMK AO2 T00451047
KPSK 141055Z AUTO 28022G33KT 10SM CLR 05/M05 A2964 RMK AO2 T00451047
KPSK 141035Z AUTO 28016G29KT 10SM CLR 05/M05 A2963 RMK AO2 T00471048
KPSK 141015Z AUTO 28015G32KT 10SM CLR 05/M05 A2961 RMK AO2 T00501049
KPSK 140955Z AUTO 27016G32KT 10SM SCT047 05/M05 A2960 RMK AO2 T00521046
KPSK 140935Z AUTO 26023G34KT 10SM CLR 05/M04 A2959 RMK AO2 T00541045
KPSK 140915Z AUTO 27017G33KT 10SM SCT048 06/M04 A2958 RMK AO2 T00561043
KPSK 140855Z AUTO 25017G24KT 10SM SCT048 05/M04 A2958 RMK AO2 T00541044
KPSK 140835Z AUTO 26016G27KT 10SM SCT050 06/M05 A2958 RMK AO2 T00551046
KPSK 140815Z AUTO 25014G21KT 10SM BKN050 05/M05 A2957 RMK AO2 T00461055
KPSK 140755Z AUTO 23011G15KT 10SM BKN050 04/M06 A2957 RMK AO2 T00421060
KPSK 140735Z AUTO 24013G22KT 10SM BKN050 04/M06 A2958 RMK AO2 T00441063
KPSK 140715Z AUTO 24018G23KT 10SM CLR 05/M07 A2957 RMK AO2 T00451066
KPSK 140655Z AUTO 24016G21KT 10SM SCT070 05/M07 A2957 RMK AO2 T00451069
KPSK 140635Z AUTO 24015G22KT 10SM OVC070 05/M07 A2957 RMK AO2 T00461072
KPSK 140615Z AUTO 25013G22KT 10SM OVC070 05/M07 A2957 RMK AO2 T00461073
KPSK 140555Z AUTO 23007G18KT 10SM OVC070 05/M08 A2958 RMK AO2 T00461076 10050 20000 400501075
KPSK 140535Z AUTO 24006KT 10SM SCT050 OVC070 04/M08 A2959 RMK AO2 T00421076
KPSK 140515Z AUTO 25011G21KT 10SM OVC050 05/M08 A2959 RMK AO2 T00481079
KPSK 140455Z AUTO 24011G18KT 10SM OVC050 05/M08 A2960 RMK AO2 T00501082
KPSK 140435Z AUTO 24007KT 10SM OVC050 05/M08 A2960 RMK AO2 T00471084
KPSK 140415Z AUTO 23007KT 10SM OVC048 05/M09 A2960 RMK AO2 T00481088
KPSK 140355Z AUTO 27009G19KT 10SM OVC046 05/M09 A2961 RMK AO2 T00501094
KPSK 140335Z AUTO 24011G22KT 170V280 10SM OVC048 02/M10 A2961 RMK AO2 T00231101
KPSK 140315Z AUTO 17004KT 10SM BKN048 OVC055 02/M10 A2961 RMK AO2 T00181105
KPSK 140255Z AUTO 22005KT 10SM BKN050 BKN055 01/M10 A2962 RMK AO2 T00141100
KPSK 140235Z AUTO 21008KT 10SM BKN050 01/M10 A2962 RMK AO2 T00121096
KPSK 140215Z AUTO 20008KT 10SM SCT050 01/M09 A2962 RMK AO2 T00061092
KPSK 140155Z AUTO 22007KT 10SM CLR 00/M09 A2963 RMK AO2 T00001086
KPSK 140135Z AUTO 23010KT 10SM CLR 01/M09 A2963 RMK AO2 T00071090
KPSK 140115Z AUTO 24008KT 10SM CLR 01/M10 A2963 RMK AO2 T00091096
KPSK 140055Z AUTO 24003KT 10SM CLR 01/M09 A2962 RMK AO2 T00051095
KPSK 140035Z AUTO 23005KT 10SM SCT090 SCT120 01/M09 A2963 RMK AO2 T00071091
KPSK 140015Z AUTO 22006KT 10SM BKN090 OVC120 02/M10 A2963 RMK AO2 T00211100
KPSK 132355Z AUTO 21007KT 10SM OVC090 03/M10 A2963 RMK AO2 T00301104 10032 20010
KPSK 132335Z AUTO 21012G15KT 10SM OVC090 03/M11 A2964 RMK AO2 T00311108
KPSK 132315Z AUTO 21008KT 10SM SCT065 OVC085 03/M10 A2965 RMK AO2 T00311104
KPSK 132255Z AUTO 19007KT 10SM BKN055 OVC070 03/M10 A2966 RMK AO2 T00311098
KPSK 132235Z AUTO 00000KT 10SM OVC055 02/M08 A2967 RMK AO2 T00221081
KPSK 132215Z AUTO 24004KT 10SM OVC055 02/M07 A2968 RMK AO2 T00231075
KPSK 132155Z AUTO 24005KT 10SM OVC055 03/M07 A2968 RMK AO2 T00251075
KPSK 132135Z AUTO 26005KT 10SM OVC055 03/M08 A2968 RMK AO2 T00271083
KPSK 132115Z AUTO 23007KT 10SM OVC060 03/M08 A2969 RMK AO2 T00271081
KPSK 132055Z AUTO 23008KT 10SM OVC070 03/M09 A2971 RMK AO2 T00261087
KPSK 132035Z AUTO 24007KT 10SM SCT070 03/M09 A2972 RMK AO2 T00251086
KPSK 132015Z AUTO 25012KT 10SM SCT070 03/M09 A2972 RMK AO2 T00261090
KPSK 131955Z AUTO 24014KT 10SM CLR 02/M09 A2974 RMK AO2 T00231091
KPSK 131935Z AUTO 22013G20KT 10SM CLR 02/M10 A2975 RMK AO2 T00201100
KPSK 131915Z AUTO 20012KT 10SM CLR 02/M11 A2976 RMK AO2 T00161106
KPSK 131855Z AUTO 22012G17KT 10SM CLR 02/M11 A2977 RMK AO2 T00151108
KPSK 131835Z AUTO 22014G18KT 10SM CLR 02/M10 A2978 RMK AO2 T00171103